createdAt,value
2018-02-11T00:02:11.170Z,4.40
2018-02-11T00:04:38.642Z,5.40
2018-02-11T00:07:06.914Z,6.37
2018-02-11T00:09:35.211Z,4.93
2018-02-11T00:12:02.697Z,4.87
2018-02-11T00:14:30.575Z,5.50
2018-02-11T00:16:58.055Z,4.93
2018-02-11T00:19:25.537Z,5.00
2018-02-11T00:21:53.810Z,4.10
2018-02-11T00:24:21.316Z,4.23
2018-02-11T00:26:48.775Z,4.27
2018-02-11T00:29:16.277Z,3.53
2018-02-11T00:31:43.804Z,4.20
2018-02-11T00:34:11.267Z,3.97
2018-02-11T00:36:53.552Z,3.20
2018-02-11T00:39:21.026Z,4.10
2018-02-11T00:41:48.522Z,3.70
2018-02-11T00:44:16.035Z,3.00
2018-02-11T00:46:43.505Z,3.40
2018-02-11T00:49:10.978Z,2.80
2018-02-11T00:51:38.457Z,2.60
2018-02-11T00:54:06.693Z,3.13
2018-02-11T00:56:34.182Z,2.50
2018-02-11T00:59:01.644Z,3.50
2018-02-11T01:01:29.130Z,3.10
2018-02-11T01:03:57.363Z,3.00
2018-02-11T01:06:24.847Z,3.20
2018-02-11T01:08:52.310Z,2.80
2018-02-11T01:11:20.606Z,2.70
2018-02-11T01:13:48.110Z,2.60
2018-02-11T01:16:15.578Z,2.60
2018-02-11T01:18:43.117Z,2.37
2018-02-11T01:21:10.577Z,2.37
2018-02-11T01:23:38.045Z,3.10
2018-02-11T01:26:05.498Z,2.40
2018-02-11T01:28:32.994Z,1.60
2018-02-11T01:31:01.226Z,2.37
2018-02-11T01:33:28.689Z,2.77
2018-02-11T01:35:56.156Z,2.27
2018-02-11T01:38:23.635Z,2.00
2018-02-11T01:40:51.243Z,2.60
2018-02-11T01:43:18.713Z,2.13
2018-02-11T01:45:46.176Z,1.47
2018-02-11T01:48:13.630Z,1.70
2018-02-11T01:50:41.102Z,1.80
2018-02-11T01:53:09.353Z,1.83
2018-02-11T01:55:36.860Z,1.87
2018-02-11T01:58:04.345Z,1.90
2018-02-11T02:00:32.590Z,1.80
2018-02-11T02:03:00.057Z,2.23
2018-02-11T02:05:27.517Z,2.00
2018-02-11T02:07:55.008Z,2.07
2018-02-11T02:10:23.245Z,2.63
2018-02-11T02:12:50.723Z,2.70
2018-02-11T02:15:18.973Z,2.80
2018-02-11T02:17:46.473Z,2.63
2018-02-11T02:20:14.696Z,2.00
2018-02-11T02:22:42.256Z,2.23
2018-02-11T02:25:09.721Z,2.20
2018-02-11T02:27:37.941Z,2.10
2018-02-11T02:30:06.188Z,1.90
2018-02-11T02:32:33.665Z,2.13
2018-02-11T02:35:01.895Z,2.00
2018-02-11T02:37:29.378Z,2.13
2018-02-11T02:39:56.838Z,2.07
2018-02-11T02:42:24.295Z,2.60
2018-02-11T02:44:51.791Z,1.77
2018-02-11T02:47:19.285Z,1.77
2018-02-11T02:49:47.585Z,1.83
2018-02-11T02:52:15.041Z,2.80
2018-02-11T02:54:42.524Z,2.30
2018-02-11T02:57:09.978Z,2.10
2018-02-11T02:59:37.456Z,2.43
2018-02-11T03:02:05.696Z,2.23
2018-02-11T03:04:33.162Z,2.00
2018-02-11T03:07:01.498Z,2.33
2018-02-11T03:09:28.978Z,2.90
2018-02-11T03:11:56.430Z,2.23
2018-02-11T03:14:23.909Z,2.37
2018-02-11T03:16:51.371Z,2.30
2018-02-11T03:19:18.886Z,2.10
2018-02-11T03:21:46.378Z,2.23
2018-02-11T03:24:13.859Z,2.77
2018-02-11T03:26:41.370Z,2.50
2018-02-11T03:29:08.829Z,2.27
2018-02-11T03:31:36.313Z,2.00
2018-02-11T03:34:03.777Z,1.87
2018-02-11T03:36:31.257Z,2.03
2018-02-11T03:38:59.479Z,1.60
2018-02-11T03:41:26.958Z,1.63
2018-02-11T03:43:54.426Z,1.70
2018-02-11T03:46:21.888Z,1.70
2018-02-11T03:48:49.402Z,1.40
2018-02-11T03:51:16.893Z,1.23
2018-02-11T03:53:44.361Z,1.37
2018-02-11T03:56:11.855Z,1.70
2018-02-11T03:58:40.154Z,1.40
2018-02-11T04:01:07.618Z,1.10
2018-02-11T04:03:35.109Z,1.60
2018-02-11T04:06:02.561Z,1.50
2018-02-11T04:08:30.030Z,1.37
2018-02-11T04:10:57.491Z,1.50
2018-02-11T04:13:24.965Z,1.20
2018-02-11T04:15:52.427Z,1.50
2018-02-11T04:18:20.667Z,1.30
2018-02-11T04:20:48.149Z,1.40
2018-02-11T04:23:15.646Z,1.23
2018-02-11T04:25:43.196Z,1.40
2018-02-11T04:28:10.662Z,1.33
2018-02-11T04:30:38.158Z,1.33
2018-02-11T04:33:05.632Z,1.40
2018-02-11T04:35:33.866Z,1.60
2018-02-11T04:38:02.046Z,1.33
2018-02-11T04:40:29.507Z,1.40
2018-02-11T04:42:56.963Z,1.40
2018-02-11T04:45:24.444Z,1.57
2018-02-11T04:47:51.911Z,1.80
2018-02-11T04:50:19.588Z,1.53
2018-02-11T04:52:47.057Z,1.43
2018-02-11T04:55:14.533Z,1.80
2018-02-11T04:57:42.834Z,1.23
2018-02-11T05:00:10.314Z,1.70
2018-02-11T05:02:37.782Z,1.27
2018-02-11T05:05:05.264Z,1.10
2018-02-11T05:07:32.729Z,1.20
2018-02-11T05:10:00.182Z,1.43
2018-02-11T05:12:27.718Z,0.93
2018-02-11T05:14:55.183Z,1.23
2018-02-11T05:17:22.638Z,1.13
2018-02-11T05:19:50.094Z,1.10
2018-02-11T05:22:17.581Z,1.10
2018-02-11T05:24:45.042Z,0.93
2018-02-11T05:27:12.510Z,0.90
2018-02-11T05:29:40.740Z,0.80
2018-02-11T05:32:08.197Z,0.90
2018-02-11T05:34:35.851Z,0.97
2018-02-11T05:37:03.340Z,1.20
2018-02-11T05:39:30.847Z,0.97
2018-02-11T05:41:58.312Z,1.13
2018-02-11T05:44:25.782Z,0.93
2018-02-11T05:46:53.253Z,0.90
2018-02-11T05:49:20.737Z,1.10
2018-02-11T05:51:48.192Z,0.87
2018-02-11T05:54:15.653Z,1.00
2018-02-11T05:56:43.137Z,0.90
2018-02-11T05:59:11.366Z,0.80
2018-02-11T06:01:39.598Z,1.03
2018-02-11T06:04:07.082Z,0.80
2018-02-11T06:06:34.609Z,1.03
2018-02-11T06:09:02.837Z,0.80
2018-02-11T06:11:31.111Z,0.80
2018-02-11T06:13:58.593Z,0.80
2018-02-11T06:16:26.054Z,0.87
2018-02-11T06:18:53.521Z,0.87
2018-02-11T06:21:20.995Z,0.80
2018-02-11T06:23:49.219Z,1.00
2018-02-11T06:26:16.676Z,0.70
2018-02-11T06:28:44.146Z,0.80
2018-02-11T06:31:11.630Z,0.80
2018-02-11T06:33:39.089Z,0.77
2018-02-11T06:36:07.504Z,1.00
2018-02-11T06:38:34.967Z,0.90
2018-02-11T06:41:02.435Z,0.97
2018-02-11T06:43:29.909Z,0.80
2018-02-11T06:45:57.396Z,1.00
2018-02-11T06:48:24.911Z,1.00
2018-02-11T06:50:52.362Z,0.80
2018-02-11T06:53:20.125Z,0.70
2018-02-11T06:55:47.610Z,0.80
2018-02-11T06:58:15.164Z,1.10
2018-02-11T07:00:42.816Z,0.80
2018-02-11T07:03:10.334Z,0.90
2018-02-11T07:05:38.601Z,0.80
2018-02-11T07:08:07.079Z,0.80
2018-02-11T07:10:34.603Z,0.80
2018-02-11T07:13:02.109Z,0.87
2018-02-11T07:15:30.345Z,0.80
2018-02-11T07:17:57.826Z,0.80
2018-02-11T07:20:26.065Z,0.70
2018-02-11T07:22:53.551Z,1.00
2018-02-11T07:25:21.015Z,1.30
2018-02-11T07:27:48.534Z,0.93
2018-02-11T07:30:16.097Z,1.67
2018-02-11T07:32:43.758Z,0.97
2018-02-11T07:35:11.278Z,1.30
2018-02-11T07:37:39.526Z,1.20
2018-02-11T07:40:07.345Z,1.10
2018-02-11T07:42:35.127Z,0.70
2018-02-11T07:45:02.613Z,0.83
2018-02-11T07:47:30.183Z,1.10
2018-02-11T07:49:59.202Z,1.73
2018-02-11T07:52:27.499Z,1.60
2018-02-11T07:54:54.980Z,1.43
2018-02-11T07:57:22.515Z,1.33
2018-02-11T07:59:50.007Z,1.53
2018-02-11T08:02:17.520Z,1.33
2018-02-11T08:04:45.770Z,1.43
2018-02-11T08:07:13.646Z,1.30
2018-02-11T08:09:41.247Z,1.93
2018-02-11T08:12:08.721Z,1.70
2018-02-11T08:14:36.540Z,1.40
2018-02-11T08:17:05.013Z,2.17
2018-02-11T08:19:32.473Z,1.93
2018-02-11T08:21:59.942Z,1.60
2018-02-11T08:24:27.390Z,2.30
2018-02-11T08:26:55.971Z,1.23
2018-02-11T08:29:23.454Z,1.60
2018-02-11T08:31:51.690Z,2.47
2018-02-11T08:34:19.156Z,2.20
2018-02-11T08:36:46.666Z,1.70
2018-02-11T08:39:14.129Z,2.80
2018-02-11T08:41:42.667Z,2.40
2018-02-11T08:44:10.144Z,2.10
2018-02-11T08:46:38.384Z,2.27
2018-02-11T08:49:05.849Z,2.43
2018-02-11T08:51:33.659Z,2.13
2018-02-11T08:54:01.121Z,2.10
2018-02-11T08:56:28.710Z,2.30
2018-02-11T08:58:57.332Z,2.70
2018-02-11T09:01:29.265Z,2.97
2018-02-11T09:03:56.859Z,3.10
2018-02-11T09:06:25.279Z,3.13
2018-02-11T09:08:52.996Z,3.87
2018-02-11T09:11:21.744Z,2.60
2018-02-11T09:13:49.939Z,2.90
2018-02-11T09:16:18.209Z,3.53
2018-02-11T09:18:45.704Z,3.67
2018-02-11T09:21:13.989Z,4.43
2018-02-11T09:23:41.451Z,2.90
2018-02-11T09:26:09.688Z,2.87
2018-02-11T09:28:39.224Z,3.23
2018-02-11T09:31:06.798Z,3.50
2018-02-11T09:33:34.607Z,4.43
2018-02-11T09:36:02.369Z,4.13
2018-02-11T09:38:29.856Z,4.37
2018-02-11T09:40:57.386Z,3.33
2018-02-11T09:43:24.886Z,3.57
2018-02-11T09:45:53.528Z,4.47
2018-02-11T09:48:21.021Z,3.73
2018-02-11T09:50:48.485Z,4.53
2018-02-11T09:53:15.986Z,4.27
2018-02-11T09:55:43.453Z,4.67
2018-02-11T09:58:10.947Z,4.30
2018-02-11T10:00:39.304Z,3.53
2018-02-11T10:03:06.758Z,4.80
2018-02-11T10:05:34.237Z,3.80
2018-02-11T10:08:02.236Z,4.20
2018-02-11T10:10:29.912Z,5.33
2018-02-11T10:12:58.167Z,4.87
2018-02-11T10:15:25.657Z,5.70
2018-02-11T10:17:54.311Z,3.63
2018-02-11T10:20:21.794Z,4.80
2018-02-11T10:22:50.028Z,5.33
2018-02-11T10:25:17.490Z,5.20
2018-02-11T10:27:44.975Z,5.63
2018-02-11T10:30:13.214Z,5.50
2018-02-11T10:32:40.683Z,5.37
2018-02-11T10:35:08.138Z,5.33
2018-02-11T10:37:35.642Z,5.73
2018-02-11T10:40:03.125Z,5.03
2018-02-11T10:42:30.616Z,4.80
2018-02-11T10:44:58.095Z,5.93
2018-02-11T10:47:25.557Z,4.50
2018-02-11T10:49:53.030Z,4.20
2018-02-11T10:52:21.295Z,3.90
2018-02-11T10:54:49.526Z,4.20
2018-02-11T10:57:17.014Z,3.73
2018-02-11T10:59:44.487Z,3.40
2018-02-11T11:02:11.956Z,3.83
2018-02-11T11:04:39.451Z,3.77
2018-02-11T11:07:06.941Z,4.73
2018-02-11T11:09:34.434Z,4.30
2018-02-11T11:12:02.690Z,5.60
2018-02-11T11:14:30.152Z,4.47
2018-02-11T11:16:57.706Z,4.00
2018-02-11T11:19:25.179Z,3.77
2018-02-11T11:21:53.462Z,4.37
2018-02-11T11:24:21.695Z,5.90
2018-02-11T11:26:49.180Z,6.47
2018-02-11T11:29:16.648Z,4.23
2018-02-11T11:31:44.158Z,3.90
2018-02-11T11:34:11.638Z,3.70
2018-02-11T11:36:39.110Z,4.40
2018-02-11T11:39:06.568Z,3.50
2018-02-11T11:41:34.036Z,4.60
2018-02-11T11:44:01.498Z,4.57
2018-02-11T11:46:29.743Z,3.83
2018-02-11T11:48:57.221Z,3.73
2018-02-11T11:51:25.632Z,3.40
2018-02-11T11:53:53.857Z,3.43
2018-02-11T11:56:22.118Z,4.87
2018-02-11T11:58:49.621Z,3.90
2018-02-11T12:01:17.084Z,3.87
2018-02-11T12:03:44.550Z,5.63
2018-02-11T12:06:12.782Z,4.07
2018-02-11T12:08:40.286Z,4.97
2018-02-11T12:11:08.610Z,4.63
2018-02-11T12:13:36.077Z,5.20
2018-02-11T12:16:03.549Z,4.90
2018-02-11T12:18:31.337Z,5.23
2018-02-11T12:20:59.584Z,4.03
2018-02-11T12:23:27.825Z,4.10
2018-02-11T12:25:55.319Z,5.13
2018-02-11T12:28:22.816Z,5.23
2018-02-11T12:30:51.057Z,4.90
2018-02-11T12:33:18.559Z,5.03
2018-02-11T12:35:47.530Z,3.57
2018-02-11T12:38:15.122Z,3.83
2018-02-11T12:40:42.611Z,4.47
2018-02-11T12:43:10.071Z,3.60
2018-02-11T12:45:37.594Z,4.20
2018-02-11T12:48:05.853Z,4.40
2018-02-11T12:50:34.071Z,3.37
2018-02-11T12:53:01.543Z,4.53
2018-02-11T12:55:29.018Z,4.23
2018-02-11T12:57:57.017Z,4.07
2018-02-11T13:00:25.235Z,3.37
2018-02-11T13:02:52.702Z,3.70
2018-02-11T13:05:20.226Z,3.90
2018-02-11T13:07:48.460Z,3.80
2018-02-11T13:10:15.934Z,4.50
2018-02-11T13:12:43.462Z,4.13
2018-02-11T13:15:10.908Z,2.97
2018-02-11T13:17:38.462Z,4.10
2018-02-11T13:20:05.987Z,2.63
2018-02-11T13:22:34.242Z,3.70
2018-02-11T13:25:01.720Z,4.50
2018-02-11T13:27:29.960Z,3.90
2018-02-11T13:29:57.426Z,3.50
2018-02-11T13:32:25.340Z,3.90
2018-02-11T13:34:54.387Z,4.30
2018-02-11T13:37:21.870Z,3.83
2018-02-11T13:39:49.331Z,4.17
2018-02-11T13:42:17.723Z,3.87
2018-02-11T13:44:45.948Z,4.73
2018-02-11T13:47:13.447Z,3.90
2018-02-11T13:49:41.682Z,4.00
2018-02-11T13:52:09.152Z,5.50
2018-02-11T13:54:36.648Z,4.73
2018-02-11T13:57:04.884Z,4.20
2018-02-11T13:59:32.525Z,4.40
2018-02-11T14:02:00.042Z,4.40
2018-02-11T14:04:28.266Z,5.73
2018-02-11T14:06:55.752Z,5.10
2018-02-11T14:09:23.237Z,4.23
2018-02-11T14:11:51.493Z,5.37
2018-02-11T14:14:18.986Z,3.00
2018-02-11T14:16:46.443Z,4.83
2018-02-11T14:19:14.678Z,3.37
2018-02-11T14:21:42.182Z,4.20
2018-02-11T14:24:09.614Z,4.03
2018-02-11T14:26:37.105Z,3.47
2018-02-11T14:29:04.582Z,3.50
2018-02-11T14:31:32.078Z,3.20
2018-02-11T14:33:59.540Z,4.30
2018-02-11T14:36:27.022Z,3.97
2018-02-11T14:38:54.519Z,3.40
2018-02-11T14:41:22.006Z,3.63
2018-02-11T14:43:51.381Z,3.20
2018-02-11T14:46:21.826Z,4.07
2018-02-11T14:48:49.287Z,3.97
2018-02-11T14:51:19.030Z,11.23
2018-02-11T14:53:47.428Z,4.70
2018-02-11T14:56:15.620Z,3.93
2018-02-11T14:58:43.335Z,4.73
2018-02-11T15:01:11.877Z,4.33
2018-02-11T15:03:39.358Z,3.53
2018-02-11T15:06:06.824Z,3.60
2018-02-11T15:08:37.166Z,4.77
2018-02-11T15:11:07.069Z,3.87
2018-02-11T15:13:35.434Z,5.77
2018-02-11T15:16:02.979Z,6.30
2018-02-11T15:18:30.456Z,5.63
2018-02-11T15:20:59.633Z,6.60
2018-02-11T15:23:27.120Z,5.17
2018-02-11T15:25:54.603Z,4.90
2018-02-11T15:28:22.988Z,4.47
2018-02-11T15:30:51.222Z,4.60
2018-02-11T15:33:19.434Z,4.83
2018-02-11T15:35:47.686Z,3.70
2018-02-11T15:38:15.149Z,4.63
2018-02-11T15:40:42.916Z,6.50
2018-02-11T15:43:13.096Z,3.90
2018-02-11T15:45:40.562Z,4.40
2018-02-11T15:48:08.033Z,4.10
2018-02-11T15:50:35.548Z,4.90
2018-02-11T15:53:03.015Z,4.53
2018-02-11T15:55:30.523Z,5.10
2018-02-11T15:57:58.028Z,4.50
2018-02-11T16:00:26.298Z,4.10
2018-02-11T16:02:54.545Z,5.57
2018-02-11T16:05:23.003Z,4.20
2018-02-11T16:07:51.698Z,4.90
2018-02-11T16:10:19.226Z,4.50
2018-02-11T16:12:46.735Z,5.20
2018-02-11T16:15:14.207Z,4.77
2018-02-11T16:17:41.691Z,4.30
2018-02-11T16:20:09.229Z,4.20
2018-02-11T16:22:37.855Z,3.43
2018-02-11T16:25:05.171Z,3.90
2018-02-11T16:27:33.431Z,4.00
2018-02-11T16:30:00.910Z,3.33
2018-02-11T16:32:29.144Z,2.97
2018-02-11T16:34:56.641Z,3.43
2018-02-11T16:37:24.876Z,4.17
2018-02-11T16:39:52.341Z,3.23
2018-02-11T16:42:19.828Z,3.90
2018-02-11T16:44:47.340Z,4.33
2018-02-11T16:47:14.816Z,5.00
2018-02-11T16:49:42.622Z,4.70
2018-02-11T16:52:10.929Z,4.53
2018-02-11T16:54:38.465Z,7.40
2018-02-11T16:57:05.925Z,7.37
2018-02-11T16:59:33.396Z,5.17
2018-02-11T17:02:00.888Z,4.90
2018-02-11T17:04:28.377Z,4.97
2018-02-11T17:06:55.857Z,5.23
2018-02-11T17:09:24.095Z,5.10
2018-02-11T17:11:51.588Z,4.77
2018-02-11T17:14:19.873Z,5.80
2018-02-11T17:16:48.182Z,4.20
2018-02-11T17:19:15.655Z,4.07
2018-02-11T17:21:43.122Z,4.10
2018-02-11T17:24:10.657Z,5.70
2018-02-11T17:26:38.212Z,4.63
2018-02-11T17:29:05.692Z,5.00
2018-02-11T17:31:33.196Z,4.63
2018-02-11T17:34:01.472Z,5.90
2018-02-11T17:36:29.760Z,4.13
2018-02-11T17:38:57.986Z,6.17
2018-02-11T17:41:25.518Z,3.40
2018-02-11T17:43:53.002Z,3.70
2018-02-11T17:46:20.499Z,3.70
2018-02-11T17:48:48.747Z,4.03
2018-02-11T17:51:16.562Z,3.90
2018-02-11T17:53:44.806Z,3.57
2018-02-11T17:56:13.198Z,3.40
2018-02-11T17:58:40.678Z,4.73
2018-02-11T18:01:08.973Z,4.20
2018-02-11T18:03:36.447Z,3.90
2018-02-11T18:06:08.579Z,5.40
2018-02-11T18:20:52.768Z,2.70
2018-02-11T18:23:20.264Z,4.00
2018-02-11T18:25:47.836Z,3.93
2018-02-11T18:28:15.292Z,2.63
2018-02-11T18:30:42.765Z,3.50
2018-02-11T18:33:10.741Z,3.20
2018-02-11T18:35:38.405Z,3.17
2018-02-11T18:38:05.865Z,4.80
2018-02-11T18:40:33.349Z,4.10
2018-02-11T18:43:00.824Z,6.20
2018-02-11T18:45:29.086Z,3.77
2018-02-11T18:47:56.547Z,4.30
2018-02-11T18:50:24.866Z,3.43
2018-02-11T18:52:52.330Z,3.60
2018-02-11T18:55:19.868Z,4.00
2018-02-11T18:57:47.383Z,3.43
2018-02-11T19:00:14.845Z,2.90
2018-02-11T19:02:43.215Z,3.93
2018-02-11T19:05:11.027Z,2.27
2018-02-11T19:07:38.679Z,2.90
2018-02-11T19:10:06.172Z,3.30
2018-02-11T19:12:39.665Z,3.70
2018-02-11T19:15:07.212Z,3.10
2018-02-11T19:17:34.670Z,3.40
2018-02-11T19:20:02.215Z,2.90
2018-02-11T19:22:29.644Z,2.93
2018-02-11T19:24:57.899Z,3.00
2018-02-11T19:27:25.350Z,2.43
2018-02-11T19:29:54.376Z,4.07
2018-02-11T19:32:22.626Z,2.90
2018-02-11T19:34:51.157Z,3.17
2018-02-11T19:37:18.634Z,2.80
2018-02-11T19:39:46.127Z,2.90
2018-02-11T19:42:13.605Z,3.20
2018-02-11T19:44:41.865Z,3.97
2018-02-11T19:47:10.093Z,4.00
2018-02-11T19:49:37.556Z,3.07
2018-02-11T19:52:07.782Z,3.77
2018-02-11T19:54:35.252Z,3.00
2018-02-11T19:57:03.680Z,3.23
2018-02-11T19:59:32.791Z,2.90
2018-02-11T20:02:00.330Z,2.90
2018-02-11T20:04:28.549Z,4.10
2018-02-11T20:06:56.088Z,3.63
2018-02-11T20:09:23.547Z,3.33
2018-02-11T20:11:51.027Z,3.50
2018-02-11T20:14:18.540Z,3.83
2018-02-11T20:16:46.181Z,3.50
2018-02-11T20:19:14.797Z,2.50
2018-02-11T20:21:43.123Z,2.10
2018-02-11T20:24:10.572Z,2.87
2018-02-11T20:26:38.137Z,2.10
2018-02-11T20:29:05.787Z,3.40
2018-02-11T20:31:33.437Z,2.80
2018-02-11T20:34:01.237Z,2.53
2018-02-11T20:36:29.427Z,3.40
2018-02-11T20:39:01.106Z,3.43
2018-02-11T20:41:28.731Z,2.27
2018-02-11T20:43:57.010Z,1.80
2018-02-11T20:46:27.009Z,2.30
2018-02-11T20:48:55.265Z,1.90
2018-02-11T20:51:22.769Z,2.03
2018-02-11T20:53:51.164Z,2.37
2018-02-11T20:56:19.722Z,2.60
2018-02-11T20:58:49.871Z,3.67
2018-02-11T21:01:17.345Z,3.27
2018-02-11T21:03:44.854Z,3.87
2018-02-11T21:06:13.122Z,3.63
2018-02-11T21:08:40.561Z,3.60
2018-02-11T21:11:08.017Z,4.67
2018-02-11T21:13:35.501Z,5.23
2018-02-11T21:16:03.777Z,5.40
2018-02-11T21:18:32.034Z,4.50
2018-02-11T21:20:59.510Z,4.63
2018-02-11T21:23:27.736Z,4.90
2018-02-11T21:25:55.222Z,4.50
2018-02-11T21:28:22.784Z,5.03
2018-02-11T21:30:50.301Z,4.10
2018-02-11T21:33:17.805Z,4.63
2018-02-11T21:35:45.317Z,3.90
2018-02-11T21:38:12.788Z,4.00
2018-02-11T21:40:40.246Z,5.03
2018-02-11T21:43:07.732Z,3.50
2018-02-11T21:45:36.875Z,4.03
2018-02-11T21:48:04.381Z,3.97
2018-02-11T21:50:31.906Z,4.50
2018-02-11T21:53:00.296Z,4.27
2018-02-11T21:55:27.820Z,4.23
2018-02-11T21:57:55.309Z,4.20
2018-02-11T22:00:22.845Z,3.30
2018-02-11T22:02:50.328Z,3.53
2018-02-11T22:05:23.388Z,3.77
2018-02-11T22:07:50.871Z,4.60
2018-02-11T22:10:18.327Z,3.73
2018-02-11T22:12:45.860Z,4.53
2018-02-11T22:15:14.366Z,3.73
2018-02-11T22:17:41.817Z,5.40
2018-02-11T22:20:19.430Z,4.43
2018-02-11T22:22:46.946Z,4.33
2018-02-11T22:25:14.443Z,4.57
2018-02-11T22:27:41.909Z,5.43
2018-02-11T22:30:09.458Z,5.03
2018-02-11T22:32:36.935Z,5.77
2018-02-11T22:35:05.205Z,5.40
2018-02-11T22:37:32.804Z,8.90
2018-02-11T22:40:00.297Z,8.70
2018-02-11T22:42:27.771Z,8.00
2018-02-11T22:44:55.249Z,7.47
2018-02-11T22:47:23.476Z,7.33
2018-02-11T22:49:51.722Z,10.10
2018-02-11T22:52:19.197Z,7.90
2018-02-11T22:54:46.664Z,8.00
2018-02-11T22:57:14.124Z,8.13
2018-02-11T22:59:41.597Z,7.63
2018-02-11T23:02:09.065Z,7.40
2018-02-11T23:04:36.518Z,7.30
2018-02-11T23:07:03.997Z,6.70
2018-02-11T23:09:32.328Z,7.60
2018-02-11T23:11:59.814Z,7.60
2018-02-11T23:14:27.292Z,8.63
2018-02-11T23:16:54.782Z,7.17
2018-02-11T23:19:22.243Z,7.10
2018-02-11T23:21:49.747Z,8.00
2018-02-11T23:24:17.200Z,6.37
2018-02-11T23:26:44.654Z,7.00
2018-02-11T23:29:12.124Z,5.90
2018-02-11T23:31:39.577Z,6.43
2018-02-11T23:34:07.816Z,6.50
2018-02-11T23:36:35.297Z,7.40
2018-02-11T23:39:02.900Z,6.50
2018-02-11T23:41:30.396Z,6.07
2018-02-11T23:43:57.858Z,7.07
2018-02-11T23:46:25.303Z,5.93
2018-02-11T23:48:52.783Z,8.40
2018-02-11T23:51:20.258Z,8.47
2018-02-11T23:53:48.500Z,7.97
2018-02-11T23:56:15.948Z,9.70
2018-02-11T23:58:43.406Z,9.10
